Time;durP1;ratioP1;P1;durP2;ratioP2;P2;SDS_P1;SDS_P2;PMS_P1;PMS_P2;Temp;Humidity;BMP_temperature;BMP_pressure;BME280_temperature;BME280_humidity;BME280_pressure;Samples;Min_cycle;Max_cycle;Signal;HPM_P1;HPM_P2
2024/01/21 00:01:42;;;;;;;1.48;1.38;;;-0.80;99.90;;;;;;5094539;27;20401;-67
2024/01/21 00:04:08;;;;;;;1.17;1.08;;;-0.70;99.90;;;;;;5095717;28;20064;-67
2024/01/21 00:06:34;;;;;;;0.13;0.13;;;-0.80;99.90;;;;;;5088973;27;20418;-68
2024/01/21 00:09:00;;;;;;;1.23;1.13;;;-0.80;99.90;;;;;;5083099;28;20031;-68
2024/01/21 00:11:25;;;;;;;0.60;0.60;;;-0.80;99.90;;;;;;5090761;27;20170;-68
2024/01/21 00:13:51;;;;;;;1.58;0.85;;;-0.80;99.90;;;;;;5100541;28;20470;-68
2024/01/21 00:16:16;;;;;;;1.95;1.33;;;-0.80;99.90;;;;;;5088001;28;21705;-68
2024/01/21 00:18:42;;;;;;;1.33;0.70;;;-0.80;99.90;;;;;;5105361;28;20067;-68
2024/01/21 00:21:07;;;;;;;0.68;0.68;;;-0.80;99.90;;;;;;5083066;28;20072;-68
2024/01/21 00:23:33;;;;;;;5.82;0.95;;;-0.80;99.90;;;;;;5080045;28;20088;-68
2024/01/21 00:25:58;;;;;;;1.30;0.82;;;-0.90;99.90;;;;;;5087939;27;20126;-68
2024/01/21 00:28:24;;;;;;;0.40;0.40;;;-0.80;99.90;;;;;;5093986;28;20635;-69
2024/01/21 00:30:50;;;;;;;1.13;0.80;;;-0.80;99.90;;;;;;5089379;27;20070;-68
2024/01/21 00:33:16;;;;;;;0.75;0.75;;;-0.80;99.90;;;;;;5070545;28;20031;-68
2024/01/21 00:35:41;;;;;;;0.77;0.77;;;-0.90;99.90;;;;;;5082596;28;20066;-68
2024/01/21 00:38:07;;;;;;;0.35;0.35;;;-0.90;99.90;;;;;;5105012;27;20066;-68
2024/01/21 00:40:33;;;;;;;1.30;1.20;;;-0.90;99.90;;;;;;5091480;28;20035;-68
2024/01/21 00:42:59;;;;;;;0.80;0.80;;;-0.90;99.90;;;;;;5099547;28;20039;-68
2024/01/21 00:45:28;;;;;;;0.98;0.98;;;-0.90;99.90;;;;;;5092571;27;20249;-68
2024/01/21 00:47:54;;;;;;;1.20;0.73;;;-0.80;99.90;;;;;;5098678;28;20043;-68
2024/01/21 00:50:22;;;;;;;0.88;0.88;;;-0.70;99.90;;;;;;5080860;28;20063;-68
2024/01/21 00:52:47;;;;;;;0.20;0.20;;;-0.80;99.90;;;;;;5091404;27;20518;-67
2024/01/21 00:55:13;;;;;;;0.98;0.75;;;-0.70;99.90;;;;;;5089714;28;20050;-68
2024/01/21 00:57:38;;;;;;;0.30;0.30;;;-0.70;99.90;;;;;;5091684;28;20548;-68
2024/01/21 01:00:05;;;;;;;0.40;0.25;;;-0.70;99.90;;;;;;5088203;28;20054;-68
2024/01/21 01:02:31;;;;;;;0.75;0.60;;;-0.70;99.90;;;;;;5078197;27;20066;-67
2024/01/21 01:04:57;;;;;;;0.30;0.30;;;-0.70;99.90;;;;;;5091234;28;20039;-68
2024/01/21 01:07:22;;;;;;;0.98;0.82;;;-0.70;99.90;;;;;;5089022;28;20805;-68
2024/01/21 01:09:48;;;;;;;1.75;0.90;;;-0.60;99.90;;;;;;5097971;28;20127;-68
2024/01/21 01:12:13;;;;;;;0.45;0.30;;;-0.60;99.90;;;;;;5089961;28;21343;-68
2024/01/21 01:14:42;;;;;;;1.80;0.65;;;-0.60;99.90;;;;;;5089106;28;20073;-68
2024/01/21 01:17:08;;;;;;;0.38;0.38;;;-0.60;99.90;;;;;;5094599;28;20710;-68
2024/01/21 01:19:34;;;;;;;0.22;0.22;;;-0.50;99.90;;;;;;5089212;28;20409;-68
2024/01/21 01:22:00;;;;;;;2.40;0.50;;;-0.50;99.90;;;;;;5089072;28;20040;-68
2024/01/21 01:24:25;;;;;;;2.30;0.82;;;-0.50;99.90;;;;;;5088431;28;20062;-68
2024/01/21 01:26:51;;;;;;;0.20;0.20;;;-0.50;99.90;;;;;;5089992;28;20482;-68
2024/01/21 01:29:16;;;;;;;0.35;0.35;;;-0.50;99.90;;;;;;5096045;28;20521;-68
2024/01/21 01:31:42;;;;;;;0.50;0.50;;;-0.40;99.90;;;;;;5092831;28;20490;-68
2024/01/21 01:34:08;;;;;;;0.70;0.30;;;-0.40;99.90;;;;;;5088120;28;20050;-68
2024/01/21 01:36:34;;;;;;;1.80;0.68;;;-0.40;99.90;;;;;;5086877;28;20482;-68
2024/01/21 01:38:59;;;;;;;1.17;1.08;;;-0.40;99.90;;;;;;5089373;28;20071;-69
2024/01/21 01:41:25;;;;;;;0.73;0.73;;;-0.40;99.90;;;;;;5094609;28;20043;-68
2024/01/21 01:43:50;;;;;;;0.28;0.28;;;-0.40;99.90;;;;;;5098621;28;20046;-69
2024/01/21 01:46:16;;;;;;;0.28;0.28;;;-0.40;99.90;;;;;;5094128;28;20045;-68
2024/01/21 01:48:42;;;;;;;1.10;0.63;;;-0.40;99.90;;;;;;5100666;28;20074;-68
2024/01/21 01:51:08;;;;;;;0.32;0.32;;;-0.40;99.90;;;;;;5094129;28;20067;-68
2024/01/21 01:53:36;;;;;;;0.65;0.65;;;-0.40;99.90;;;;;;5098186;28;20069;-68
2024/01/21 01:56:02;;;;;;;0.63;0.63;;;-0.30;99.90;;;;;;5099353;28;20036;-68
2024/01/21 01:58:28;;;;;;;0.50;0.50;;;-0.30;99.90;;;;;;5098186;28;20027;-68
2024/01/21 02:00:54;;;;;;;5.38;0.50;;;-0.40;99.90;;;;;;5104291;28;20035;-68
2024/01/21 02:03:22;;;;;;;1.67;0.68;;;-0.40;99.90;;;;;;5088933;28;20044;-68
2024/01/21 02:05:47;;;;;;;0.20;0.20;;;-0.40;99.90;;;;;;5098114;28;20044;-68
2024/01/21 02:08:13;;;;;;;0.65;0.55;;;-0.40;99.90;;;;;;5103449;28;21280;-69
2024/01/21 02:10:38;;;;;;;0.40;0.40;;;-0.40;99.90;;;;;;5087967;28;20122;-69
2024/01/21 02:13:04;;;;;;;6.25;0.75;;;-0.40;99.90;;;;;;5094338;28;20071;-69
2024/01/21 02:15:29;;;;;;;0.85;0.85;;;-0.40;99.90;;;;;;5091248;27;20446;-68
2024/01/21 02:17:55;;;;;;;1.67;0.70;;;-0.30;99.90;;;;;;5106419;27;20499;-68
2024/01/21 02:20:21;;;;;;;2.30;0.73;;;-0.40;99.90;;;;;;5084109;28;20070;-68
2024/01/21 02:22:47;;;;;;;1.10;0.30;;;-0.30;99.90;;;;;;5097490;27;20050;-68
2024/01/21 02:25:12;;;;;;;0.93;0.75;;;-0.30;99.90;;;;;;5092754;27;20091;-68
2024/01/21 02:27:38;;;;;;;0.10;0.10;;;-0.30;99.90;;;;;;5095414;27;20043;-68
2024/01/21 02:30:04;;;;;;;2.40;0.77;;;-0.30;99.90;;;;;;5093373;28;20486;-68
2024/01/21 02:32:30;;;;;;;0.40;0.40;;;-0.30;99.90;;;;;;5091645;27;20067;-68
2024/01/21 02:34:55;;;;;;;0.22;0.22;;;-0.30;99.90;;;;;;5094257;27;20475;-68
2024/01/21 02:37:21;;;;;;;1.35;0.65;;;-0.30;99.90;;;;;;5101895;27;20028;-68
2024/01/21 02:39:47;;;;;;;2.28;0.60;;;-0.30;99.90;;;;;;5104768;27;20383;-68
2024/01/21 02:42:12;;;;;;;0.25;0.25;;;-0.30;99.90;;;;;;5093984;27;20395;-69
2024/01/21 02:44:38;;;;;;;0.22;0.22;;;-0.30;99.90;;;;;;5092966;27;20397;-69
2024/01/21 02:47:04;;;;;;;1.65;0.73;;;-0.20;99.90;;;;;;5090475;27;20027;-68
2024/01/21 02:49:29;;;;;;;0.35;0.32;;;-0.20;99.90;;;;;;5074703;27;20416;-69
2024/01/21 02:51:58;;;;;;;0.20;0.20;;;-0.20;99.90;;;;;;5112907;27;20039;-68
2024/01/21 02:54:25;;;;;;;0.55;0.55;;;-0.20;99.90;;;;;;5089516;27;20433;-68
2024/01/21 02:56:50;;;;;;;1.60;0.40;;;-0.20;99.90;;;;;;5095860;27;20458;-68
2024/01/21 02:59:16;;;;;;;0.65;0.65;;;-0.20;99.90;;;;;;5093525;27;20043;-69
2024/01/21 03:01:42;;;;;;;1.45;0.52;;;-0.20;99.90;;;;;;5095588;27;20088;-69
2024/01/21 03:04:14;;;;;;;1.20;1.08;;;-0.20;99.90;;;;;;5091153;28;20042;-68
2024/01/21 03:06:43;;;;;;;0.30;0.30;;;-0.10;99.90;;;;;;5089320;28;20044;-69
2024/01/21 03:09:09;;;;;;;2.85;0.60;;;-0.10;99.90;;;;;;5095573;27;20099;-68
2024/01/21 03:11:37;;;;;;;0.98;0.95;;;-0.20;99.90;;;;;;5092913;27;20051;-69
2024/01/21 03:14:02;;;;;;;0.55;0.55;;;-0.10;99.90;;;;;;5092095;28;20276;-69
2024/01/21 03:16:28;;;;;;;1.42;1.33;;;-0.10;99.90;;;;;;5093593;28;20042;-69
2024/01/21 03:18:53;;;;;;;0.60;0.50;;;0.00;99.90;;;;;;5093811;28;20040;-70
2024/01/21 03:21:19;;;;;;;0.43;0.43;;;-0.10;99.90;;;;;;5088331;28;20031;-70
2024/01/21 03:23:45;;;;;;;0.35;0.35;;;0.00;99.90;;;;;;5096737;28;20909;-68
2024/01/21 03:26:10;;;;;;;1.90;1.20;;;0.00;99.90;;;;;;5090723;27;20043;-68
2024/01/21 03:28:36;;;;;;;0.47;0.47;;;0.00;99.90;;;;;;5097694;28;20486;-69
2024/01/21 03:31:02;;;;;;;0.13;0.13;;;0.00;99.90;;;;;;5088243;27;20047;-69
2024/01/21 03:33:27;;;;;;;0.28;0.28;;;0.00;99.90;;;;;;5097676;27;20043;-69
2024/01/21 03:35:53;;;;;;;0.68;0.68;;;0.00;99.90;;;;;;5098354;28;20040;-70
2024/01/21 03:38:18;;;;;;;0.43;0.43;;;0.00;99.90;;;;;;5094492;27;20066;-68
2024/01/21 03:40:44;;;;;;;3.63;0.68;;;0.00;99.90;;;;;;5095171;27;20115;-68
2024/01/21 03:43:10;;;;;;;1.10;1.05;;;0.00;99.90;;;;;;5093903;27;20118;-69
2024/01/21 03:45:35;;;;;;;0.28;0.28;;;0.00;99.90;;;;;;5090656;28;20043;-68
2024/01/21 03:48:01;;;;;;;0.32;0.32;;;0.00;99.90;;;;;;5098882;27;20126;-68
2024/01/21 03:50:26;;;;;;;0.20;0.20;;;0.00;99.90;;;;;;5094853;28;20062;-69
2024/01/21 03:52:52;;;;;;;0.40;0.40;;;0.00;99.90;;;;;;5097922;27;20031;-68
2024/01/21 03:55:19;;;;;;;0.10;0.10;;;0.00;99.90;;;;;;5098708;27;20035;-68
2024/01/21 03:57:45;;;;;;;0.30;0.30;;;0.00;99.90;;;;;;5096192;27;20039;-68
2024/01/21 04:00:11;;;;;;;0.63;0.63;;;-0.10;99.90;;;;;;5092418;28;20085;-68
2024/01/21 04:02:37;;;;;;;0.45;0.45;;;-0.10;99.90;;;;;;5090606;28;20550;-68
2024/01/21 04:05:04;;;;;;;0.10;0.10;;;0.00;99.90;;;;;;5090479;27;20035;-68
2024/01/21 04:07:30;;;;;;;0.85;0.85;;;0.00;99.90;;;;;;5103477;27;20043;-69
2024/01/21 04:09:56;;;;;;;0.35;0.35;;;0.00;99.90;;;;;;5094807;28;20082;-68
2024/01/21 04:12:21;;;;;;;0.25;0.25;;;-0.10;99.90;;;;;;5101459;27;20108;-68
2024/01/21 04:14:47;;;;;;;0.20;0.20;;;0.00;99.90;;;;;;5093545;28;20039;-68
2024/01/21 04:17:13;;;;;;;2.95;1.33;;;0.00;99.90;;;;;;5099814;27;20027;-68
2024/01/21 04:19:38;;;;;;;0.90;0.90;;;-0.10;99.90;;;;;;5094876;27;20062;-68
2024/01/21 04:22:04;;;;;;;0.35;0.35;;;-0.10;99.90;;;;;;5101797;27;20465;-68
2024/01/21 04:24:29;;;;;;;0.25;0.25;;;-0.10;99.90;;;;;;5097480;27;20058;-68
2024/01/21 04:26:55;;;;;;;0.35;0.35;;;-0.20;99.90;;;;;;5097126;28;20417;-68
2024/01/21 04:29:21;;;;;;;0.10;0.10;;;-0.20;99.90;;;;;;5100578;27;20569;-69
2024/01/21 04:31:46;;;;;;;0.20;0.20;;;-0.20;99.90;;;;;;5102071;27;20070;-68
2024/01/21 04:34:12;;;;;;;0.47;0.47;;;-0.20;99.90;;;;;;5097133;27;20048;-68
2024/01/21 04:36:38;;;;;;;0.10;0.10;;;-0.20;99.90;;;;;;5095796;27;20058;-68
2024/01/21 04:39:04;;;;;;;0.20;0.20;;;-0.30;99.90;;;;;;5091808;28;20120;-68
2024/01/21 04:41:30;;;;;;;0.35;0.35;;;-0.20;99.90;;;;;;5091307;27;20043;-68
2024/01/21 04:43:56;;;;;;;3.63;0.38;;;-0.20;99.90;;;;;;5086927;28;20059;-68
2024/01/21 04:46:22;;;;;;;1.00;0.93;;;-0.20;99.90;;;;;;5094072;27;20390;-68
2024/01/21 04:48:48;;;;;;;0.32;0.32;;;-0.20;99.90;;;;;;5101050;28;20418;-69
2024/01/21 04:51:14;;;;;;;0.68;0.45;;;-0.30;99.90;;;;;;5089281;28;20111;-71
2024/01/21 04:53:39;;;;;;;0.25;0.25;;;-0.30;99.90;;;;;;5090787;27;20050;-69
2024/01/21 04:56:05;;;;;;;0.68;0.47;;;-0.30;99.90;;;;;;5082096;28;20486;-69
2024/01/21 04:58:32;;;;;;;0.30;0.30;;;-0.30;99.90;;;;;;5089975;28;20378;-69
2024/01/21 05:00:57;;;;;;;0.20;0.20;;;-0.30;99.90;;;;;;5087981;27;20040;-69
2024/01/21 05:03:23;;;;;;;0.30;0.30;;;-0.30;99.90;;;;;;5101559;28;20369;-70
2024/01/21 05:05:49;;;;;;;0.55;0.55;;;-0.40;99.90;;;;;;5070546;28;20488;-69
2024/01/21 05:08:15;;;;;;;0.52;0.52;;;-0.40;99.90;;;;;;5091397;28;20035;-68
2024/01/21 05:10:40;;;;;;;0.10;0.10;;;-0.40;99.90;;;;;;5098091;28;20035;-68
2024/01/21 05:13:06;;;;;;;0.10;0.10;;;-0.50;99.90;;;;;;5088815;27;20050;-68
2024/01/21 05:15:31;;;;;;;0.15;0.15;;;-0.50;99.90;;;;;;5082843;28;20028;-68
2024/01/21 05:17:57;;;;;;;0.65;0.52;;;-0.50;99.90;;;;;;5095186;28;20031;-68
2024/01/21 05:20:23;;;;;;;1.25;1.20;;;-0.50;99.90;;;;;;5088784;28;20038;-69
2024/01/21 05:22:50;;;;;;;0.85;0.77;;;-0.50;99.90;;;;;;5086219;28;20563;-68
2024/01/21 05:25:16;;;;;;;0.88;0.28;;;-0.50;99.90;;;;;;5090336;28;20047;-68
2024/01/21 05:27:42;;;;;;;0.20;0.20;;;-0.40;99.90;;;;;;5081426;28;20453;-68
2024/01/21 05:30:08;;;;;;;0.10;0.10;;;-0.30;99.90;;;;;;5095477;28;20047;-69
2024/01/21 05:32:33;;;;;;;0.65;0.52;;;-0.30;99.90;;;;;;5090559;28;20130;-69
2024/01/21 05:34:59;;;;;;;0.30;0.30;;;-0.30;99.90;;;;;;5097102;28;20120;-69
2024/01/21 05:37:24;;;;;;;0.20;0.20;;;-0.20;99.90;;;;;;5085727;28;20067;-68
2024/01/21 05:39:50;;;;;;;0.00;0.00;;;-0.10;99.90;;;;;;5092004;28;20042;-69
2024/01/21 05:42:15;;;;;;;0.20;0.20;;;-0.10;99.90;;;;;;5087281;28;20051;-69
2024/01/21 05:44:41;;;;;;;0.52;0.52;;;0.00;99.90;;;;;;5089384;28;20058;-69
2024/01/21 05:47:07;;;;;;;0.88;0.55;;;0.10;99.90;;;;;;5088398;28;20088;-69
2024/01/21 05:49:33;;;;;;;2.10;0.63;;;0.10;99.90;;;;;;5092632;27;20070;-69
2024/01/21 05:51:59;;;;;;;0.60;0.60;;;0.10;99.90;;;;;;5097368;27;20050;-69
2024/01/21 05:54:27;;;;;;;0.10;0.10;;;0.20;99.90;;;;;;5099179;27;20044;-70
2024/01/21 05:56:53;;;;;;;0.20;0.20;;;0.20;99.90;;;;;;5088721;28;20120;-70
2024/01/21 05:59:20;;;;;;;0.60;0.60;;;0.20;99.90;;;;;;5099668;27;20481;-69
2024/01/21 06:01:49;;;;;;;0.32;0.28;;;0.30;99.90;;;;;;5090417;28;20482;-69
2024/01/21 06:04:16;;;;;;;0.50;0.50;;;0.30;99.90;;;;;;5093262;28;20123;-69
2024/01/21 06:06:41;;;;;;;0.13;0.13;;;0.30;99.90;;;;;;5091536;27;20078;-70
2024/01/21 06:09:07;;;;;;;0.20;0.20;;;0.30;99.90;;;;;;5102682;28;20537;-68
2024/01/21 06:11:33;;;;;;;0.17;0.13;;;0.30;99.90;;;;;;5086489;27;20039;-68
2024/01/21 06:13:58;;;;;;;0.40;0.40;;;0.40;99.90;;;;;;5096993;28;20040;-69
2024/01/21 06:16:24;;;;;;;0.22;0.22;;;0.40;99.90;;;;;;5094059;27;20036;-71
2024/01/21 06:18:49;;;;;;;1.38;0.73;;;0.40;99.90;;;;;;5094339;28;20036;-68
2024/01/21 06:21:16;;;;;;;0.10;0.10;;;0.50;99.90;;;;;;5090709;27;20032;-68
2024/01/21 06:23:42;;;;;;;0.28;0.28;;;0.50;99.90;;;;;;5102935;27;20044;-68
2024/01/21 06:26:19;;;;;;;0.57;0.57;;;0.50;99.90;;;;;;5096727;27;20095;-69
2024/01/21 06:28:51;;;;;;;0.20;0.20;;;0.50;99.90;;;;;;5096542;27;20062;-69
2024/01/21 06:31:17;;;;;;;0.52;0.40;;;0.50;99.90;;;;;;5087659;28;20046;-70
2024/01/21 06:33:43;;;;;;;0.40;0.40;;;0.50;99.90;;;;;;5089552;28;20047;-69
2024/01/21 06:36:08;;;;;;;1.05;0.75;;;0.50;99.90;;;;;;5100979;28;20035;-69
2024/01/21 06:38:34;;;;;;;1.92;0.65;;;0.50;99.90;;;;;;5093643;28;20031;-69
2024/01/21 06:41:00;;;;;;;4.03;0.57;;;0.50;99.90;;;;;;5100633;27;20095;-72
2024/01/21 06:43:25;;;;;;;0.43;0.43;;;0.50;99.90;;;;;;5095907;27;20492;-69
2024/01/21 06:45:51;;;;;;;0.47;0.47;;;0.50;99.90;;;;;;5092758;27;20091;-69
2024/01/21 06:48:16;;;;;;;1.55;0.95;;;0.50;99.90;;;;;;5097928;27;20043;-69
2024/01/21 06:50:43;;;;;;;0.30;0.30;;;0.50;99.90;;;;;;5095516;28;20327;-68
2024/01/21 06:53:08;;;;;;;0.25;0.25;;;0.50;99.90;;;;;;5086158;27;20547;-69
2024/01/21 06:55:34;;;;;;;0.10;0.10;;;0.50;99.90;;;;;;5096668;27;20146;-69
2024/01/21 06:57:59;;;;;;;0.30;0.30;;;0.50;99.90;;;;;;5088055;28;20036;-72
2024/01/21 07:00:25;;;;;;;0.10;0.10;;;0.50;99.90;;;;;;5094713;27;20051;-68
2024/01/21 07:02:50;;;;;;;1.55;0.40;;;0.50;99.90;;;;;;5090479;27;20036;-70
2024/01/21 07:05:16;;;;;;;0.32;0.32;;;0.60;99.90;;;;;;5094059;28;20376;-68
2024/01/21 07:07:41;;;;;;;1.88;1.35;;;0.60;99.90;;;;;;5091811;27;20126;-69
2024/01/21 07:10:07;;;;;;;0.50;0.40;;;0.70;99.90;;;;;;5100317;27;20482;-69
2024/01/21 07:12:33;;;;;;;0.25;0.25;;;0.60;99.90;;;;;;5096907;28;20095;-69
2024/01/21 07:14:59;;;;;;;0.40;0.40;;;0.60;99.90;;;;;;5093416;27;20419;-69
2024/01/21 07:17:24;;;;;;;0.20;0.20;;;0.60;99.90;;;;;;5100014;27;20039;-69
2024/01/21 07:19:53;;;;;;;0.32;0.32;;;0.60;99.90;;;;;;5094891;28;20130;-68
2024/01/21 07:22:22;;;;;;;0.13;0.13;;;0.60;99.90;;;;;;5089070;27;20048;-69
2024/01/21 07:24:48;;;;;;;0.68;0.60;;;0.60;99.90;;;;;;5098912;27;20058;-69
2024/01/21 07:27:13;;;;;;;0.57;0.57;;;0.60;99.90;;;;;;5089425;27;20384;-69
2024/01/21 07:29:40;;;;;;;0.82;0.55;;;0.70;99.90;;;;;;5089247;28;20032;-69
2024/01/21 07:32:06;;;;;;;0.10;0.10;;;0.70;99.90;;;;;;5087758;27;20047;-69
2024/01/21 07:34:31;;;;;;;0.17;0.17;;;0.70;99.90;;;;;;5095828;27;20286;-69
2024/01/21 07:36:57;;;;;;;0.20;0.20;;;0.70;99.90;;;;;;5086587;27;20032;-69
2024/01/21 07:39:23;;;;;;;0.90;0.65;;;0.70;99.90;;;;;;5077254;28;20087;-69
2024/01/21 07:41:48;;;;;;;1.08;0.50;;;0.70;99.90;;;;;;5100653;27;20038;-71
2024/01/21 07:44:14;;;;;;;1.58;0.65;;;0.70;99.90;;;;;;5091818;27;20595;-68
2024/01/21 07:46:39;;;;;;;0.40;0.40;;;0.70;99.90;;;;;;5090007;28;20047;-68
2024/01/21 07:49:05;;;;;;;0.30;0.30;;;0.80;99.90;;;;;;5093237;27;20049;-69
2024/01/21 07:51:30;;;;;;;0.50;0.50;;;0.80;99.90;;;;;;5094068;27;20126;-69
2024/01/21 07:53:56;;;;;;;1.10;1.10;;;0.80;99.90;;;;;;5093646;28;20036;-69
2024/01/21 07:56:22;;;;;;;0.40;0.20;;;0.80;99.90;;;;;;5087447;28;20031;-71
2024/01/21 07:58:47;;;;;;;0.20;0.20;;;0.90;99.90;;;;;;5088405;27;20044;-69
2024/01/21 08:01:13;;;;;;;1.00;0.85;;;0.90;99.90;;;;;;5094799;28;20044;-69
2024/01/21 08:03:39;;;;;;;0.15;0.15;;;0.90;99.90;;;;;;5087468;27;20066;-69
2024/01/21 08:06:07;;;;;;;0.20;0.20;;;0.90;99.90;;;;;;5089138;27;20108;-69
2024/01/21 08:08:33;;;;;;;0.90;0.52;;;0.90;99.90;;;;;;5094159;27;20104;-70
2024/01/21 08:10:59;;;;;;;0.73;0.73;;;1.00;99.90;;;;;;5088400;28;20069;-69
2024/01/21 08:13:24;;;;;;;0.50;0.50;;;1.00;99.90;;;;;;5106176;27;20481;-70
2024/01/21 08:15:50;;;;;;;0.35;0.35;;;1.00;99.90;;;;;;5094030;28;20538;-69
2024/01/21 08:18:19;;;;;;;0.10;0.10;;;1.10;99.90;;;;;;5094055;28;20375;-71
2024/01/21 08:20:45;;;;;;;0.20;0.20;;;1.10;99.90;;;;;;5092250;27;20042;-69
2024/01/21 08:23:11;;;;;;;1.00;0.75;;;1.20;99.90;;;;;;5088471;27;20031;-71
2024/01/21 08:25:36;;;;;;;0.60;0.60;;;1.20;99.90;;;;;;5089750;28;20563;-69
2024/01/21 08:28:02;;;;;;;0.57;0.17;;;1.30;99.90;;;;;;5093921;27;20150;-68
2024/01/21 08:30:28;;;;;;;0.10;0.10;;;1.30;99.90;;;;;;5091011;28;20553;-70
2024/01/21 08:32:53;;;;;;;0.28;0.25;;;1.30;99.90;;;;;;5089363;28;20027;-71
2024/01/21 08:35:20;;;;;;;0.20;0.20;;;1.30;99.90;;;;;;5088788;27;20289;-69
2024/01/21 08:37:46;;;;;;;1.08;0.52;;;1.40;99.90;;;;;;5087806;28;20076;-69
2024/01/21 08:40:12;;;;;;;0.35;0.20;;;1.40;99.90;;;;;;5087925;28;20050;-69
2024/01/21 08:42:37;;;;;;;0.65;0.65;;;1.30;99.90;;;;;;5105724;27;20039;-71
2024/01/21 08:45:04;;;;;;;0.20;0.20;;;1.40;99.90;;;;;;5073457;28;20028;-70
2024/01/21 08:47:29;;;;;;;1.48;0.65;;;1.40;99.90;;;;;;5083444;28;20633;-69
2024/01/21 08:49:55;;;;;;;0.20;0.20;;;1.50;99.90;;;;;;5088887;28;20039;-69
2024/01/21 08:52:20;;;;;;;0.22;0.22;;;1.50;99.90;;;;;;5077437;28;20067;-69
2024/01/21 08:54:46;;;;;;;0.20;0.20;;;1.60;99.90;;;;;;5080392;28;20547;-70
2024/01/21 08:57:12;;;;;;;0.30;0.30;;;1.70;99.90;;;;;;5069394;28;20067;-70
2024/01/21 08:59:37;;;;;;;0.80;0.60;;;1.70;99.90;;;;;;5077140;28;20418;-69
2024/01/21 09:02:03;;;;;;;1.63;0.70;;;1.80;99.90;;;;;;5091963;28;20038;-68
2024/01/21 09:04:28;;;;;;;0.90;0.38;;;1.80;99.90;;;;;;5085952;28;20051;-73
2024/01/21 09:06:54;;;;;;;0.75;0.75;;;1.90;99.90;;;;;;5094413;28;20118;-70
2024/01/21 09:09:20;;;;;;;0.17;0.17;;;2.00;99.90;;;;;;5087983;28;20433;-70
2024/01/21 09:11:47;;;;;;;0.22;0.22;;;2.00;99.90;;;;;;5090667;28;20054;-71
2024/01/21 09:14:13;;;;;;;0.45;0.45;;;2.00;99.90;;;;;;5086713;28;20045;-71
2024/01/21 09:16:38;;;;;;;0.50;0.50;;;2.00;99.90;;;;;;5096136;28;20032;-72
2024/01/21 09:19:05;;;;;;;0.22;0.22;;;2.00;99.90;;;;;;5091861;28;20047;-70
2024/01/21 09:21:32;;;;;;;3.00;0.73;;;2.00;99.90;;;;;;5083437;28;20545;-69
2024/01/21 09:24:01;;;;;;;6.15;1.35;;;2.00;99.90;;;;;;5077464;28;20043;-69
2024/01/21 09:26:27;;;;;;;0.40;0.40;;;2.00;99.90;;;;;;5092455;28;20074;-69
2024/01/21 09:28:52;;;;;;;0.28;0.28;;;1.90;99.90;;;;;;5091636;28;20066;-71
2024/01/21 09:31:18;;;;;;;1.25;0.55;;;2.10;99.90;;;;;;5095958;27;20042;-69
2024/01/21 09:33:44;;;;;;;4.07;1.52;;;2.10;99.90;;;;;;5086225;28;20055;-70
2024/01/21 09:36:11;;;;;;;0.98;0.40;;;2.20;99.90;;;;;;5081391;27;20066;-69
2024/01/21 09:38:36;;;;;;;0.70;0.70;;;2.20;99.90;;;;;;5092754;28;20070;-70
2024/01/21 09:41:17;;;;;;;0.13;0.13;;;2.30;99.90;;;;;;5098833;28;20454;-69
2024/01/21 09:43:43;;;;;;;1.95;1.50;;;2.30;99.90;;;;;;5097094;27;20047;-69
2024/01/21 09:46:12;;;;;;;0.85;0.70;;;2.30;99.90;;;;;;5090419;28;20058;-70
2024/01/21 09:48:38;;;;;;;1.80;0.65;;;2.40;99.90;;;;;;5080939;28;20039;-71
2024/01/21 09:51:06;;;;;;;0.90;0.90;;;2.50;99.90;;;;;;5075444;28;20374;-70
2024/01/21 09:53:35;;;;;;;1.17;0.60;;;2.50;99.90;;;;;;5087012;28;20509;-70
2024/01/21 09:56:07;;;;;;;0.70;0.70;;;2.60;99.90;;;;;;5089487;28;20147;-69
2024/01/21 09:58:50;;;;;;;1.10;1.00;;;2.60;99.90;;;;;;5076487;28;20043;-69
2024/01/21 10:01:17;;;;;;;0.25;0.25;;;2.70;99.90;;;;;;5091870;28;20058;-70
2024/01/21 10:03:46;;;;;;;0.35;0.35;;;2.80;99.90;;;;;;5095233;28;20070;-69
2024/01/21 10:06:12;;;;;;;0.20;0.20;;;2.90;99.90;;;;;;5093843;27;20078;-70
2024/01/21 10:08:42;;;;;;;0.40;0.40;;;2.90;99.90;;;;;;5094514;28;20067;-70
2024/01/21 10:11:08;;;;;;;0.47;0.47;;;3.00;99.90;;;;;;5086121;28;20094;-71
2024/01/21 10:13:38;;;;;;;0.45;0.45;;;3.00;99.90;;;;;;5093766;27;20035;-70
2024/01/21 10:16:07;;;;;;;0.40;0.40;;;3.10;99.90;;;;;;5081346;28;20042;-71
2024/01/21 10:18:34;;;;;;;0.80;0.80;;;3.10;99.90;;;;;;5094110;27;20031;-71
2024/01/21 10:21:07;;;;;;;1.60;0.63;;;3.20;99.90;;;;;;5090532;28;20034;-71
2024/01/21 10:23:33;;;;;;;1.17;0.90;;;3.20;99.90;;;;;;5093182;28;20039;-72
2024/01/21 10:25:59;;;;;;;1.55;0.40;;;3.20;99.90;;;;;;5091075;28;20046;-70
2024/01/21 10:28:26;;;;;;;1.27;0.73;;;3.20;99.90;;;;;;5090929;28;20096;-71
2024/01/21 10:30:51;;;;;;;0.70;0.70;;;3.30;99.90;;;;;;5087919;28;20398;-72
2024/01/21 10:33:17;;;;;;;3.10;0.70;;;3.30;99.90;;;;;;5077449;28;20031;-71
2024/01/21 10:35:42;;;;;;;1.65;0.80;;;3.30;99.90;;;;;;5073534;28;20389;-70
2024/01/21 10:38:11;;;;;;;1.17;0.60;;;3.40;99.90;;;;;;5094236;28;20490;-73
2024/01/21 10:40:43;;;;;;;0.68;0.68;;;3.40;99.90;;;;;;5091064;28;20057;-71
2024/01/21 10:43:14;;;;;;;1.15;1.05;;;3.40;99.90;;;;;;5091952;28;20290;-71
2024/01/21 10:45:45;;;;;;;19.45;0.65;;;3.50;99.90;;;;;;5090585;28;20517;-70
2024/01/21 10:48:15;;;;;;;1.00;1.00;;;3.50;99.90;;;;;;5061075;28;20123;-68
2024/01/21 10:50:42;;;;;;;2.28;1.00;;;3.50;99.90;;;;;;5075739;28;20494;-72
2024/01/21 10:53:12;;;;;;;0.30;0.30;;;3.50;99.90;;;;;;5091510;28;20040;-70
2024/01/21 10:55:40;;;;;;;0.10;0.10;;;3.60;99.90;;;;;;5090373;28;20043;-71
2024/01/21 10:58:09;;;;;;;1.63;1.13;;;3.60;99.90;;;;;;5093948;28;20115;-70
2024/01/21 11:00:37;;;;;;;0.90;0.38;;;3.60;99.90;;;;;;5085846;28;20188;-75
2024/01/21 11:03:22;;;;;;;0.50;0.50;;;3.70;99.90;;;;;;5095069;28;20051;-74
2024/01/21 11:05:47;;;;;;;0.45;0.45;;;3.70;99.90;;;;;;5087424;28;20071;-72
2024/01/21 11:08:15;;;;;;;0.40;0.40;;;3.70;99.90;;;;;;5095683;28;20066;-70
2024/01/21 11:10:40;;;;;;;0.20;0.20;;;3.70;99.90;;;;;;5089091;28;20124;-74
2024/01/21 11:13:06;;;;;;;0.60;0.60;;;3.70;99.90;;;;;;5095099;28;20474;-71
2024/01/21 11:15:32;;;;;;;0.35;0.35;;;3.70;99.90;;;;;;5086814;28;20031;-69
2024/01/21 11:18:11;;;;;;;1.23;0.93;;;3.70;99.90;;;;;;5090457;28;20427;-75
2024/01/21 11:20:38;;;;;;;0.45;0.40;;;3.70;99.90;;;;;;5079648;28;20049;-74
2024/01/21 11:23:14;;;;;;;1.10;0.93;;;3.70;99.90;;;;;;5095098;28;20043;-69
2024/01/21 11:25:48;;;;;;;2.70;0.80;;;3.70;99.90;;;;;;5085591;28;20098;-73
2024/01/21 11:28:29;;;;;;;1.17;0.90;;;3.80;99.90;;;;;;5083741;28;20130;-74
2024/01/21 11:31:07;;;;;;;0.93;0.93;;;3.80;99.90;;;;;;5085905;28;20134;-73
2024/01/21 11:33:32;;;;;;;1.98;1.80;;;3.80;99.90;;;;;;5091447;28;20039;-74
2024/01/21 11:35:59;;;;;;;0.40;0.40;;;3.80;99.90;;;;;;5092267;28;20024;-76
2024/01/21 11:38:26;;;;;;;2.88;1.63;;;3.80;99.90;;;;;;5073123;28;20040;-69
2024/01/21 11:41:02;;;;;;;2.90;0.85;;;3.80;99.90;;;;;;5091931;28;20051;-75
2024/01/21 11:43:28;;;;;;;0.25;0.25;;;3.80;99.90;;;;;;5073883;27;20075;-74
2024/01/21 11:45:55;;;;;;;1.83;0.85;;;3.80;99.90;;;;;;5086155;28;20156;-68
2024/01/21 11:48:27;;;;;;;1.30;1.15;;;3.70;99.90;;;;;;5111377;27;20043;-70
2024/01/21 11:50:52;;;;;;;3.00;0.98;;;3.80;99.90;;;;;;5090286;28;20092;-74
2024/01/21 11:53:18;;;;;;;2.30;2.15;;;3.80;99.90;;;;;;5091867;28;20401;-70
2024/01/21 11:55:46;;;;;;;3.28;0.90;;;3.90;99.90;;;;;;5089397;28;20044;-70
2024/01/21 11:58:12;;;;;;;1.45;0.93;;;3.90;99.90;;;;;;5086264;28;20039;-74
2024/01/21 12:00:38;;;;;;;0.20;0.20;;;3.90;99.90;;;;;;5092270;28;20559;-69
2024/01/21 12:03:04;;;;;;;4.18;0.57;;;3.90;99.90;;;;;;5092736;28;20054;-70
2024/01/21 12:05:29;;;;;;;0.55;0.55;;;3.90;99.90;;;;;;5089518;28;20043;-74
2024/01/21 12:07:55;;;;;;;2.30;2.10;;;3.90;99.90;;;;;;5086823;28;20032;-72
2024/01/21 12:10:21;;;;;;;0.82;0.82;;;3.90;99.90;;;;;;5091343;28;20069;-69
2024/01/21 12:12:47;;;;;;;6.50;1.70;;;4.00;99.90;;;;;;5094660;28;20050;-71
2024/01/21 12:15:12;;;;;;;0.50;0.50;;;4.00;99.90;;;;;;5081014;28;20093;-68
2024/01/21 12:17:38;;;;;;;0.63;0.63;;;4.00;99.90;;;;;;5103793;28;20078;-69
2024/01/21 12:20:04;;;;;;;1.77;1.17;;;4.00;99.90;;;;;;5081881;28;20036;-70
2024/01/21 12:22:41;;;;;;;0.35;0.25;;;4.00;99.90;;;;;;5097069;27;20474;-70
2024/01/21 12:25:08;;;;;;;1.48;0.57;;;4.00;99.90;;;;;;5089010;27;20054;-70
2024/01/21 12:27:36;;;;;;;1.27;1.25;;;4.10;99.90;;;;;;5115751;27;20031;-72
2024/01/21 12:30:02;;;;;;;0.35;0.35;;;4.10;99.90;;;;;;5080173;28;20059;-72
2024/01/21 12:32:28;;;;;;;0.65;0.40;;;4.10;99.90;;;;;;5093827;28;20078;-75
2024/01/21 12:34:54;;;;;;;0.47;0.47;;;4.20;99.90;;;;;;5093954;28;20067;-70
2024/01/21 12:37:20;;;;;;;1.58;0.73;;;4.20;99.90;;;;;;5089630;28;20044;-71
2024/01/21 12:39:47;;;;;;;0.90;0.90;;;4.30;99.90;;;;;;5088537;28;20123;-70
2024/01/21 12:42:12;;;;;;;1.38;0.80;;;4.30;99.90;;;;;;5084953;28;20600;-73
2024/01/21 12:44:38;;;;;;;1.15;0.50;;;4.40;99.90;;;;;;5087507;28;20032;-74
2024/01/21 12:47:04;;;;;;;1.35;1.02;;;4.40;99.90;;;;;;5093918;28;20475;-72
2024/01/21 12:49:30;;;;;;;1.55;1.42;;;4.40;99.90;;;;;;5095883;28;20433;-74